Time;durP1;ratioP1;P1;durP2;ratioP2;P2;SDS_P1;SDS_P2;PMS_P1;PMS_P2;Temp;Humidity;BMP_temperature;BMP_pressure;BME280_temperature;BME280_humidity;BME280_pressure;Samples;Min_cycle;Max_cycle;Signal;HPM_P1;HPM_P2
2022/05/30 00:01:15;;;;;;;2.13;2.00;;;9.80;99.90;;;;;;5035396;28;20222;-92
2022/05/30 00:03:44;;;;;;;4.80;2.40;;;9.90;99.90;;;;;;5035084;28;20203;-91
2022/05/30 00:06:13;;;;;;;5.23;2.40;;;9.80;99.90;;;;;;5035561;28;20242;-89
2022/05/30 00:08:41;;;;;;;3.37;2.53;;;9.80;99.90;;;;;;5035257;28;20211;-86
2022/05/30 00:11:10;;;;;;;3.37;2.70;;;9.70;99.90;;;;;;5035435;28;20221;-87
2022/05/30 00:13:40;;;;;;;8.30;2.47;;;9.70;99.90;;;;;;5034538;28;20211;-86
2022/05/30 00:16:08;;;;;;;5.43;2.67;;;9.70;99.90;;;;;;5034658;28;20219;-86
2022/05/30 00:18:35;;;;;;;12.27;2.90;;;9.60;99.90;;;;;;5034792;28;20207;-85
2022/05/30 00:21:02;;;;;;;3.33;2.60;;;9.60;99.90;;;;;;5034703;28;20218;-87
2022/05/30 00:23:29;;;;;;;5.37;2.87;;;9.50;99.90;;;;;;5034850;28;20215;-91
2022/05/30 00:25:56;;;;;;;4.63;2.73;;;9.40;99.90;;;;;;5034803;28;20242;-91
2022/05/30 00:28:25;;;;;;;6.77;2.80;;;9.30;99.90;;;;;;5035076;28;20639;-92
2022/05/30 00:30:53;;;;;;;6.15;2.80;;;9.40;99.90;;;;;;5034864;28;20439;-92
2022/05/30 00:33:20;;;;;;;5.30;2.77;;;9.40;99.90;;;;;;5034986;28;20217;-91
2022/05/30 00:35:47;;;;;;;6.53;3.37;;;9.30;99.90;;;;;;5042797;28;20214;-92
2022/05/30 00:38:14;;;;;;;4.43;2.60;;;9.30;99.90;;;;;;5036125;28;20219;-91
2022/05/30 00:40:42;;;;;;;5.70;3.13;;;9.20;99.90;;;;;;5035015;28;20206;-90
2022/05/30 00:43:24;;;;;;;7.23;2.90;;;9.20;99.90;;;;;;5034591;28;20208;-91
2022/05/30 00:45:56;;;;;;;8.67;2.97;;;9.30;99.90;;;;;;5034897;28;20226;-87
2022/05/30 00:48:26;;;;;;;8.37;2.90;;;9.30;99.90;;;;;;5034920;28;20607;-91
2022/05/30 00:50:59;;;;;;;3.97;2.50;;;9.30;99.90;;;;;;5034605;28;20211;-91
2022/05/30 00:53:27;;;;;;;7.47;3.07;;;9.30;99.90;;;;;;5034703;28;20265;-90
2022/05/30 00:55:54;;;;;;;6.68;3.38;;;9.10;99.90;;;;;;5035052;28;20431;-91
2022/05/30 00:58:22;;;;;;;5.00;3.50;;;9.10;99.90;;;;;;5034979;28;20211;-88
2022/05/30 01:00:49;;;;;;;5.00;3.20;;;9.10;99.90;;;;;;5035046;28;20218;-90
2022/05/30 01:08:46;;;;;;;6.30;3.33;;;9.10;99.90;;;;;;5034408;28;20205;-88
2022/05/30 01:11:13;;;;;;;9.17;3.40;;;9.20;99.90;;;;;;5034254;28;20226;-90
2022/05/30 01:13:41;;;;;;;9.93;3.30;;;9.10;99.90;;;;;;5034315;28;20214;-88
2022/05/30 01:16:08;;;;;;;8.87;3.53;;;9.20;99.90;;;;;;5034271;28;20238;-89
2022/05/30 01:18:43;;;;;;;5.10;3.30;;;9.20;99.90;;;;;;5034039;28;20219;-89
2022/05/30 01:21:47;;;;;;;4.97;3.20;;;9.20;99.90;;;;;;5016727;28;20644;-87
2022/05/30 01:24:37;;;;;;;5.60;3.43;;;9.10;99.90;;;;;;5034023;28;20215;-92
2022/05/30 01:27:13;;;;;;;4.40;3.00;;;9.00;99.90;;;;;;5033181;28;20237;-92
2022/05/30 01:29:45;;;;;;;5.10;3.60;;;9.00;99.90;;;;;;5034167;28;20214;-92
2022/05/30 01:32:18;;;;;;;6.13;3.30;;;9.00;99.90;;;;;;5042019;28;20221;-93
2022/05/30 01:34:44;;;;;;;5.07;3.40;;;9.00;99.90;;;;;;5034604;28;20215;-92
2022/05/30 01:37:12;;;;;;;5.23;3.40;;;9.10;99.90;;;;;;5034329;28;20225;-92
2022/05/30 01:39:39;;;;;;;4.50;3.13;;;9.10;99.90;;;;;;5034065;28;20270;-91
2022/05/30 01:42:07;;;;;;;7.10;3.53;;;9.00;99.90;;;;;;5034389;28;20663;-90
2022/05/30 01:44:34;;;;;;;4.73;3.03;;;9.00;99.90;;;;;;5034146;28;20202;-92
2022/05/30 01:47:03;;;;;;;7.23;3.13;;;8.90;99.90;;;;;;5033742;28;20595;-92
2022/05/30 01:49:29;;;;;;;11.53;3.70;;;8.80;99.90;;;;;;5033790;28;20203;-92
2022/05/30 01:51:57;;;;;;;5.67;3.70;;;8.90;99.90;;;;;;5034080;28;20218;-92
2022/05/30 01:54:23;;;;;;;4.07;3.60;;;8.90;99.90;;;;;;5034138;28;20227;-91
2022/05/30 01:56:51;;;;;;;4.67;3.30;;;8.80;99.90;;;;;;5033761;28;20223;-92
2022/05/30 01:59:18;;;;;;;6.80;3.87;;;8.80;99.90;;;;;;5034021;28;20265;-92
2022/05/30 02:01:45;;;;;;;5.97;3.97;;;8.80;99.90;;;;;;5033812;28;20219;-89
2022/05/30 02:04:14;;;;;;;7.00;3.90;;;8.80;99.90;;;;;;5033894;28;20218;-92
2022/05/30 02:06:42;;;;;;;6.13;3.70;;;8.80;99.90;;;;;;5033968;28;20232;-91
2022/05/30 02:09:09;;;;;;;7.47;3.50;;;8.70;99.90;;;;;;5033894;28;20725;-91
2022/05/30 02:11:37;;;;;;;5.80;3.50;;;8.80;99.90;;;;;;5034192;28;20219;-92
2022/05/30 02:14:05;;;;;;;8.00;3.20;;;8.60;99.90;;;;;;5043097;28;20215;-90
2022/05/30 02:19:20;;;;;;;4.73;3.60;;;8.50;99.90;;;;;;5033458;28;20281;-90
2022/05/30 02:21:47;;;;;;;4.03;3.53;;;8.40;99.90;;;;;;5033689;28;20215;-91
2022/05/30 02:24:14;;;;;;;6.47;3.60;;;8.40;99.90;;;;;;5033771;28;20222;-90
2022/05/30 02:26:40;;;;;;;5.07;3.43;;;8.30;99.90;;;;;;5032271;28;20243;-91
2022/05/30 02:29:07;;;;;;;5.63;3.40;;;8.20;99.90;;;;;;5029094;28;20218;-91
2022/05/30 02:31:35;;;;;;;6.03;4.10;;;8.20;99.90;;;;;;5031978;28;20215;-90
2022/05/30 02:36:48;;;;;;;5.07;3.90;;;8.30;99.90;;;;;;5033552;28;20265;-92
2022/05/30 02:39:16;;;;;;;4.67;4.20;;;8.20;99.90;;;;;;5037220;28;20207;-92
2022/05/30 02:41:44;;;;;;;5.60;3.73;;;8.20;99.90;;;;;;5040458;28;20213;-92
2022/05/30 02:44:12;;;;;;;7.43;4.43;;;8.20;99.90;;;;;;5040900;28;20211;-92
2022/05/30 02:46:39;;;;;;;8.47;3.80;;;8.10;99.90;;;;;;5037090;28;20227;-91
2022/05/30 02:49:06;;;;;;;8.07;3.73;;;8.10;99.90;;;;;;5037140;28;20211;-92
2022/05/30 02:51:33;;;;;;;5.70;3.57;;;8.10;99.90;;;;;;5037046;28;20244;-92
2022/05/30 02:54:01;;;;;;;3.60;3.27;;;8.10;99.90;;;;;;5037115;28;20294;-91
2022/05/30 02:56:28;;;;;;;8.30;3.57;;;8.10;99.90;;;;;;5036740;28;20215;-92
2022/05/30 02:58:54;;;;;;;4.03;3.73;;;8.10;99.90;;;;;;5036023;28;20287;-92
2022/05/30 03:01:22;;;;;;;5.77;3.57;;;8.20;99.90;;;;;;5034840;28;20211;-92
2022/05/30 03:03:49;;;;;;;6.50;4.00;;;7.90;99.90;;;;;;5037062;28;20293;-91
2022/05/30 03:06:16;;;;;;;7.60;4.03;;;7.90;99.90;;;;;;5019289;28;20222;-91
2022/05/30 03:08:43;;;;;;;10.03;4.10;;;7.90;99.90;;;;;;5036161;28;20606;-91
2022/05/30 03:11:11;;;;;;;4.30;3.90;;;7.80;99.90;;;;;;5036608;28;20321;-90
2022/05/30 03:13:39;;;;;;;4.70;4.03;;;7.80;99.90;;;;;;5036546;28;20230;-90
2022/05/30 03:16:07;;;;;;;6.33;3.87;;;7.90;99.90;;;;;;5036622;28;20222;-92
2022/05/30 03:18:35;;;;;;;6.13;4.10;;;7.90;99.90;;;;;;5036394;28;20227;-91
2022/05/30 03:21:02;;;;;;;6.20;4.37;;;7.90;99.90;;;;;;5036313;28;20225;-89
2022/05/30 03:23:29;;;;;;;10.87;5.17;;;7.80;99.90;;;;;;5036337;28;20206;-92
2022/05/30 03:25:57;;;;;;;5.90;4.73;;;7.70;99.90;;;;;;5039561;28;20234;-93
2022/05/30 03:28:25;;;;;;;7.17;4.67;;;7.60;99.90;;;;;;5036606;28;20254;-91
2022/05/30 03:30:52;;;;;;;6.93;4.63;;;7.70;99.90;;;;;;5036102;28;20662;-92
2022/05/30 03:33:19;;;;;;;12.10;5.30;;;7.80;99.90;;;;;;5036355;28;20688;-91
2022/05/30 03:35:47;;;;;;;7.27;4.47;;;7.90;99.90;;;;;;5036477;28;20226;-91
2022/05/30 03:38:14;;;;;;;10.53;5.13;;;7.90;99.90;;;;;;5036005;28;20217;-91
2022/05/30 03:40:41;;;;;;;6.07;4.47;;;7.90;99.90;;;;;;5036276;28;20269;-91
2022/05/30 03:43:11;;;;;;;7.60;4.40;;;7.90;99.90;;;;;;5035596;28;20210;-91
2022/05/30 03:45:41;;;;;;;7.00;4.70;;;7.90;99.90;;;;;;5035980;28;20218;-91
2022/05/30 03:48:10;;;;;;;6.47;4.73;;;8.00;99.90;;;;;;5035582;28;20681;-91
2022/05/30 03:50:39;;;;;;;6.93;4.27;;;8.10;99.90;;;;;;5035755;28;20214;-92
2022/05/30 03:53:06;;;;;;;6.90;4.37;;;8.10;99.90;;;;;;5035926;28;20214;-92
2022/05/30 03:55:34;;;;;;;6.00;4.37;;;8.10;99.90;;;;;;5018313;28;20215;-91
2022/05/30 03:58:02;;;;;;;5.70;4.50;;;8.00;99.90;;;;;;5035932;28;20223;-92
2022/05/30 04:00:29;;;;;;;5.53;4.93;;;8.10;99.90;;;;;;5035947;28;20219;-92
2022/05/30 04:02:57;;;;;;;8.80;5.57;;;8.10;99.90;;;;;;5035932;28;20218;-86
2022/05/30 04:05:25;;;;;;;11.60;5.50;;;8.20;99.90;;;;;;5035673;28;20215;-91
2022/05/30 04:07:52;;;;;;;7.37;5.07;;;8.30;99.90;;;;;;5042700;28;20235;-90
2022/05/30 04:10:19;;;;;;;9.43;5.57;;;8.40;99.90;;;;;;5035762;28;20222;-92
2022/05/30 04:12:46;;;;;;;7.30;5.57;;;8.50;99.90;;;;;;5035540;28;20203;-92
2022/05/30 04:15:19;;;;;;;10.63;5.63;;;8.60;99.90;;;;;;5035506;28;20215;-91
2022/05/30 04:17:47;;;;;;;7.07;6.00;;;8.70;99.90;;;;;;5035503;28;20214;-90
2022/05/30 04:20:16;;;;;;;9.80;6.10;;;8.70;99.90;;;;;;5035306;28;20217;-88
2022/05/30 04:22:44;;;;;;;5.80;4.90;;;8.80;99.90;;;;;;5034896;28;20554;-92
2022/05/30 04:25:11;;;;;;;8.37;5.63;;;8.80;99.90;;;;;;5034948;28;20231;-91
2022/05/30 04:27:38;;;;;;;8.40;5.33;;;8.70;99.90;;;;;;5034623;28;20234;-92
2022/05/30 04:30:09;;;;;;;7.60;5.93;;;8.80;99.90;;;;;;5035082;28;20212;-92
2022/05/30 04:32:36;;;;;;;7.87;5.43;;;8.80;99.90;;;;;;5035185;28;20211;-91
2022/05/30 04:35:05;;;;;;;9.40;6.10;;;8.90;99.90;;;;;;5034734;28;20265;-92
2022/05/30 04:37:33;;;;;;;9.68;5.97;;;8.90;99.90;;;;;;5035036;28;20354;-92
2022/05/30 04:40:00;;;;;;;9.03;5.80;;;9.00;99.90;;;;;;5034696;28;20226;-91
2022/05/30 04:42:27;;;;;;;7.63;6.03;;;8.90;99.90;;;;;;5017150;28;20215;-89
2022/05/30 04:44:54;;;;;;;6.20;5.60;;;9.00;99.90;;;;;;5035008;28;20243;-91
2022/05/30 04:47:21;;;;;;;6.70;5.53;;;9.10;99.90;;;;;;5034606;28;20230;-91
2022/05/30 04:49:49;;;;;;;9.87;5.53;;;9.00;99.90;;;;;;5036561;28;20218;-90
2022/05/30 04:52:15;;;;;;;9.60;6.00;;;9.00;99.90;;;;;;5034647;28;20218;-87
2022/05/30 04:54:45;;;;;;;5.47;4.97;;;9.10;99.90;;;;;;5034329;28;20219;-87
2022/05/30 04:57:12;;;;;;;8.27;5.53;;;8.90;99.90;;;;;;5034000;28;20678;-87
2022/05/30 04:59:43;;;;;;;10.47;6.47;;;9.10;99.90;;;;;;5034216;28;20207;-90
2022/05/30 05:02:12;;;;;;;11.03;5.93;;;9.30;99.90;;;;;;5026347;28;20659;-87
2022/05/30 05:04:40;;;;;;;9.50;6.03;;;9.30;99.90;;;;;;5018503;28;20301;-92
2022/05/30 05:07:08;;;;;;;9.07;5.77;;;9.40;99.90;;;;;;5034381;28;20215;-93
2022/05/30 05:09:47;;;;;;;7.30;5.37;;;9.40;99.90;;;;;;5033633;28;20317;-92
2022/05/30 05:12:15;;;;;;;12.03;5.60;;;9.50;99.90;;;;;;5033605;28;20214;-93
2022/05/30 05:14:42;;;;;;;9.67;5.47;;;9.60;99.90;;;;;;5034416;28;20555;-94
2022/05/30 05:17:10;;;;;;;12.90;5.50;;;9.50;99.90;;;;;;5034241;28;20215;-93
2022/05/30 05:19:38;;;;;;;8.83;5.23;;;9.40;99.90;;;;;;5034366;28;20218;-88
2022/05/30 05:22:06;;;;;;;8.63;5.67;;;9.40;99.90;;;;;;5034488;28;20238;-90
2022/05/30 05:24:34;;;;;;;14.30;11.40;;;9.30;99.90;;;;;;5033733;28;20218;-90
2022/05/30 05:27:01;;;;;;;9.37;6.60;;;9.40;99.90;;;;;;5033960;28;20242;-88
2022/05/30 05:29:29;;;;;;;8.33;5.87;;;9.40;99.90;;;;;;5033809;28;20238;-87
2022/05/30 05:31:57;;;;;;;9.77;6.10;;;9.60;99.90;;;;;;5033969;28;20673;-87
2022/05/30 05:34:24;;;;;;;10.03;6.13;;;9.60;99.90;;;;;;5033856;28;20241;-93
2022/05/30 05:36:52;;;;;;;7.87;5.63;;;9.80;99.90;;;;;;5034606;28;20233;-92
2022/05/30 05:39:19;;;;;;;9.87;6.27;;;9.80;99.90;;;;;;5033961;28;20662;-93
2022/05/30 05:41:47;;;;;;;8.73;6.13;;;9.80;99.90;;;;;;5034024;28;20222;-92
2022/05/30 05:44:16;;;;;;;7.87;5.77;;;10.00;99.90;;;;;;5036703;28;20694;-93
2022/05/30 05:46:44;;;;;;;12.57;5.77;;;10.20;99.90;;;;;;5041737;28;20215;-91
2022/05/30 05:49:11;;;;;;;11.13;6.23;;;10.20;99.90;;;;;;5033969;28;20242;-87
2022/05/30 05:51:39;;;;;;;10.23;6.27;;;10.50;99.90;;;;;;5026751;28;20216;-89
2022/05/30 05:54:07;;;;;;;11.88;7.00;;;10.50;99.90;;;;;;5012960;28;20448;-91
2022/05/30 05:56:34;;;;;;;10.03;5.70;;;10.60;99.90;;;;;;5013385;28;20689;-91
2022/05/30 05:59:02;;;;;;;10.63;5.93;;;10.80;99.90;;;;;;5014243;28;20224;-88
2022/05/30 06:01:32;;;;;;;7.93;5.00;;;10.90;99.90;;;;;;5019990;28;20215;-90
2022/05/30 06:04:03;;;;;;;18.47;5.53;;;10.90;99.90;;;;;;5015595;28;20258;-92
2022/05/30 06:06:30;;;;;;;9.60;4.87;;;11.10;99.90;;;;;;5033005;28;20430;-90
2022/05/30 06:09:00;;;;;;;7.87;5.53;;;11.10;99.90;;;;;;5034370;28;20233;-91
2022/05/30 06:11:29;;;;;;;9.90;5.17;;;11.00;99.90;;;;;;5035156;28;20265;-91
2022/05/30 06:13:56;;;;;;;8.90;4.97;;;11.10;99.90;;;;;;5038698;28;20214;-90
2022/05/30 06:16:26;;;;;;;9.30;5.47;;;11.40;99.90;;;;;;5038945;28;20211;-92
2022/05/30 06:18:54;;;;;;;6.37;4.43;;;11.50;99.90;;;;;;5041912;28;20207;-90
2022/05/30 06:21:24;;;;;;;9.73;5.20;;;11.70;99.90;;;;;;5053052;28;20220;-91
2022/05/30 06:23:54;;;;;;;9.53;5.37;;;11.90;99.90;;;;;;5052777;28;20211;-91
2022/05/30 06:26:21;;;;;;;7.63;4.97;;;12.10;99.90;;;;;;5047648;28;21067;-86
2022/05/30 06:28:55;;;;;;;9.17;5.13;;;11.80;99.90;;;;;;5048082;28;20235;-92
2022/05/30 06:31:25;;;;;;;9.33;4.30;;;12.10;99.90;;;;;;5046143;28;20302;-92
2022/05/30 06:33:54;;;;;;;8.53;4.07;;;12.20;99.90;;;;;;5045242;28;20207;-90
2022/05/30 06:36:24;;;;;;;7.97;4.90;;;12.20;99.90;;;;;;5044165;28;20237;-92
2022/05/30 06:38:51;;;;;;;12.93;4.13;;;12.30;99.90;;;;;;5038677;28;20218;-92
2022/05/30 06:41:20;;;;;;;8.37;3.30;;;12.30;99.90;;;;;;5037867;28;20216;-92
2022/05/30 06:43:47;;;;;;;7.13;3.07;;;12.50;99.90;;;;;;5039044;28;20202;-93
2022/05/30 06:46:16;;;;;;;14.33;3.77;;;12.50;99.90;;;;;;5039489;28;20217;-92
2022/05/30 06:48:43;;;;;;;9.63;3.53;;;12.50;99.90;;;;;;5040437;28;20229;-92
2022/05/30 06:51:12;;;;;;;7.27;3.10;;;12.50;99.90;;;;;;5048167;28;20220;-93
2022/05/30 06:53:41;;;;;;;11.07;3.50;;;12.70;99.90;;;;;;5039610;28;20213;-91
2022/05/30 06:56:13;;;;;;;7.73;2.30;;;12.90;99.90;;;;;;5040290;28;20241;-89
2022/05/30 06:58:40;;;;;;;6.60;2.40;;;13.00;99.90;;;;;;5039020;28;20440;-85
2022/05/30 07:01:07;;;;;;;10.87;3.50;;;12.90;99.90;;;;;;5031459;28;20218;-89
2022/05/30 07:03:34;;;;;;;5.87;2.83;;;13.20;99.90;;;;;;5019205;28;20203;-91
2022/05/30 07:06:03;;;;;;;9.87;2.87;;;13.30;99.90;;;;;;5021393;28;20223;-87
2022/05/30 07:08:30;;;;;;;7.05;2.70;;;13.50;99.90;;;;;;5016295;28;20840;-89
2022/05/30 07:11:00;;;;;;;14.27;3.13;;;13.60;99.90;;;;;;5015928;28;20218;-90
2022/05/30 07:13:27;;;;;;;10.80;2.73;;;13.80;99.90;;;;;;5017389;28;20207;-91
2022/05/30 07:15:55;;;;;;;11.67;3.43;;;14.10;99.90;;;;;;5017221;28;20223;-91
2022/05/30 07:18:21;;;;;;;9.37;3.00;;;14.40;99.90;;;;;;5019994;28;20257;-90
2022/05/30 07:20:56;;;;;;;11.67;3.03;;;14.40;99.90;;;;;;5036725;28;20207;-91
2022/05/30 07:23:23;;;;;;;7.67;2.77;;;14.70;99.90;;;;;;5035570;28;20673;-92
2022/05/30 07:26:08;;;;;;;8.50;3.47;;;14.40;99.90;;;;;;5036178;28;20250;-89
2022/05/30 07:28:35;;;;;;;7.10;3.20;;;14.00;99.90;;;;;;5036104;28;20646;-85
2022/05/30 07:31:11;;;;;;;8.57;2.80;;;14.00;99.90;;;;;;5036521;28;20219;-91
2022/05/30 07:33:41;;;;;;;12.32;3.88;;;14.40;99.90;;;;;;5038407;28;20441;-88
2022/05/30 07:36:12;;;;;;;10.43;3.40;;;14.60;99.90;;;;;;5044566;28;20227;-88
2022/05/30 07:38:39;;;;;;;13.93;3.40;;;14.90;99.90;;;;;;5044048;28;20289;-89
2022/05/30 07:41:07;;;;;;;9.33;3.60;;;15.20;99.90;;;;;;5039504;28;20218;-89
2022/05/30 07:43:34;;;;;;;7.43;3.07;;;15.40;99.90;;;;;;5036380;28;20244;-85
2022/05/30 07:46:02;;;;;;;7.07;3.17;;;15.30;99.90;;;;;;5035744;28;20216;-90
2022/05/30 07:48:29;;;;;;;6.37;2.63;;;15.10;99.90;;;;;;5035764;28;20285;-93
2022/05/30 07:50:56;;;;;;;8.40;2.63;;;14.50;99.90;;;;;;5038924;28;20207;-90
2022/05/30 07:53:23;;;;;;;6.43;2.80;;;14.10;99.90;;;;;;5044013;28;20211;-91
2022/05/30 07:55:50;;;;;;;5.00;2.80;;;14.00;99.90;;;;;;5044763;28;20217;-92
2022/05/30 07:58:18;;;;;;;7.80;2.70;;;14.30;99.90;;;;;;5041401;28;20203;-84
2022/05/30 08:00:48;;;;;;;6.53;2.63;;;14.40;99.90;;;;;;5035198;28;20206;-86
2022/05/30 08:03:16;;;;;;;8.53;3.03;;;14.30;99.90;;;;;;5034624;28;20214;-85
2022/05/30 08:05:43;;;;;;;5.53;2.50;;;14.20;99.90;;;;;;5035370;28;20219;-86
2022/05/30 08:08:10;;;;;;;8.80;2.57;;;14.50;99.90;;;;;;5035430;28;20231;-85
2022/05/30 08:10:38;;;;;;;7.00;2.40;;;14.80;99.90;;;;;;5035347;28;20749;-86
2022/05/30 08:13:06;;;;;;;6.43;2.13;;;14.60;99.90;;;;;;5035238;28;20211;-86
2022/05/30 08:15:35;;;;;;;8.50;2.63;;;14.70;99.90;;;;;;5035309;28;20219;-86
2022/05/30 08:18:02;;;;;;;7.30;2.20;;;14.30;99.90;;;;;;5034278;28;20678;-85
2022/05/30 08:20:31;;;;;;;9.33;2.80;;;14.20;99.90;;;;;;5034921;28;20303;-87
2022/05/30 08:22:58;;;;;;;9.13;2.40;;;13.90;99.90;;;;;;5034914;28;20221;-86
2022/05/30 08:25:25;;;;;;;7.87;3.10;;;13.80;99.90;;;;;;5033846;28;20443;-87
2022/05/30 08:27:52;;;;;;;7.80;2.47;;;13.80;99.90;;;;;;5034691;28;20456;-87
2022/05/30 08:30:20;;;;;;;4.23;1.90;;;13.80;99.90;;;;;;5034770;28;20247;-86
2022/05/30 08:32:49;;;;;;;4.17;1.90;;;13.90;99.90;;;;;;5034881;28;20221;-86
2022/05/30 08:35:18;;;;;;;7.57;2.37;;;13.80;99.90;;;;;;5034760;28;20214;-86
2022/05/30 08:37:46;;;;;;;5.53;1.70;;;13.80;99.90;;;;;;5034878;28;20225;-85
2022/05/30 08:43:07;;;;;;;5.37;1.53;;;14.10;99.90;;;;;;5033421;28;20209;-86
2022/05/30 08:45:34;;;;;;;5.33;1.53;;;13.90;99.90;;;;;;5034137;28;20215;-86
2022/05/30 08:48:05;;;;;;;5.77;2.40;;;14.10;99.90;;;;;;5034335;28;20222;-85
2022/05/30 08:50:40;;;;;;;2.50;1.60;;;14.10;99.90;;;;;;5034238;28;20265;-81
2022/05/30 08:53:37;;;;;;;4.20;1.80;;;14.10;99.90;;;;;;5033969;28;20220;-84
2022/05/30 08:56:13;;;;;;;5.57;2.17;;;14.20;99.90;;;;;;5001598;28;20219;-85
2022/05/30 08:58:51;;;;;;;4.57;2.10;;;14.40;99.90;;;;;;5033397;28;20219;-84
2022/05/30 09:01:21;;;;;;;3.50;2.00;;;14.50;99.90;;;;;;5034156;28;20206;-86
2022/05/30 09:04:08;;;;;;;4.43;1.60;;;14.60;99.90;;;;;;5021078;28;20210;-87
2022/05/30 09:06:39;;;;;;;7.80;2.37;;;14.80;99.90;;;;;;5014121;28;20647;-87
2022/05/30 09:09:14;;;;;;;5.37;1.70;;;14.40;99.90;;;;;;5014718;28;20235;-84
2022/05/30 09:11:44;;;;;;;4.93;2.00;;;14.30;99.90;;;;;;5014707;28;20211;-91
2022/05/30 09:14:14;;;;;;;6.53;1.88;;;14.40;99.90;;;;;;5039306;28;20437;-89
2022/05/30 09:16:46;;;;;;;5.13;2.07;;;15.00;99.90;;;;;;5053835;28;20214;-86
2022/05/30 09:19:16;;;;;;;4.00;1.37;;;15.30;99.90;;;;;;5054232;28;20218;-84
2022/05/30 09:21:43;;;;;;;4.13;1.40;;;15.10;99.90;;;;;;5056434;28;20223;-90
2022/05/30 09:24:11;;;;;;;5.63;1.90;;;15.40;99.90;;;;;;5055584;28;20224;-92
2022/05/30 09:26:40;;;;;;;4.23;1.50;;;15.40;99.90;;;;;;5056838;28;20736;-87
2022/05/30 09:29:15;;;;;;;3.27;1.40;;;15.00;99.90;;;;;;5056385;28;20226;-87
2022/05/30 09:32:05;;;;;;;4.13;1.70;;;14.20;99.90;;;;;;5058087;28;20217;-90
2022/05/30 09:34:41;;;;;;;5.47;1.43;;;14.20;99.90;;;;;;5056240;28;20221;-95
2022/05/30 09:37:08;;;;;;;3.47;1.20;;;14.30;99.90;;;;;;5060958;28;20206;-94
2022/05/30 09:39:46;;;;;;;3.10;1.30;;;14.50;99.90;;;;;;5057241;28;20230;-89
2022/05/30 09:42:26;;;;;;;3.53;1.20;;;14.40;99.90;;;;;;5056160;28;20222;-92
2022/05/30 09:44:59;;;;;;;4.23;1.60;;;14.30;99.90;;;;;;5058257;28;20216;-94
2022/05/30 09:47:25;;;;;;;7.60;1.57;;;14.40;99.90;;;;;;5069223;28;20220;-94
2022/05/30 09:49:55;;;;;;;4.00;1.43;;;14.40;99.90;;;;;;5061089;28;20226;-93
2022/05/30 09:52:36;;;;;;;4.67;1.70;;;14.40;99.90;;;;;;5061001;28;20214;-89
2022/05/30 09:55:24;;;;;;;7.23;2.00;;;14.60;99.90;;;;;;5061159;28;20205;-95
2022/05/30 09:57:51;;;;;;;3.67;1.67;;;14.40;99.90;;;;;;5063129;28;20206;-94
2022/05/30 10:00:20;;;;;;;6.17;2.00;;;14.40;99.90;;;;;;5062830;28;20217;-91
2022/05/30 10:02:59;;;;;;;5.97;1.87;;;14.50;99.90;;;;;;5066344;28;20228;-90
2022/05/30 10:05:38;;;;;;;5.50;2.40;;;14.50;99.90;;;;;;5064594;28;20430;-91
2022/05/30 10:08:08;;;;;;;5.40;2.17;;;14.70;99.90;;;;;;5062938;28;20209;-95
2022/05/30 10:10:39;;;;;;;4.90;2.23;;;14.60;99.90;;;;;;5065038;28;20312;-94
2022/05/30 10:13:08;;;;;;;4.97;2.30;;;14.70;99.90;;;;;;5061706;28;20220;-95
2022/05/30 10:15:38;;;;;;;5.17;2.10;;;14.70;99.90;;;;;;5062162;28;20210;-94
2022/05/30 10:18:29;;;;;;;5.87;2.10;;;14.90;99.90;;;;;;5066697;28;20216;-95
2022/05/30 10:21:22;;;;;;;4.27;1.63;;;15.20;99.90;;;;;;5067117;28;20245;-92
2022/05/30 10:30:04;;;;;;;4.30;1.97;;;15.40;99.90;;;;;;5077220;28;20209;-91
2022/05/30 10:32:37;;;;;;;6.07;2.23;;;15.60;99.90;;;;;;5075756;28;20275;-93
2022/05/30 10:35:21;;;;;;;5.50;2.10;;;16.00;99.90;;;;;;5074346;28;20219;-92
2022/05/30 10:38:20;;;;;;;4.93;2.20;;;16.50;99.90;;;;;;5073717;28;20283;-93
2022/05/30 10:41:02;;;;;;;6.13;2.23;;;16.10;99.90;;;;;;5075531;28;20216;-92
2022/05/30 10:43:41;;;;;;;3.30;2.50;;;16.00;99.90;;;;;;5072767;28;20208;-87
2022/05/30 10:46:11;;;;;;;6.47;2.00;;;16.20;99.90;;;;;;5073356;28;20217;-86
2022/05/30 10:48:40;;;;;;;6.33;2.67;;;15.80;99.90;;;;;;5050585;28;20239;-87
2022/05/30 10:51:12;;;;;;;9.30;2.80;;;15.40;99.90;;;;;;5054338;28;20216;-87
2022/05/30 10:53:48;;;;;;;6.57;2.30;;;15.20;99.90;;;;;;5050726;28;20689;-89
2022/05/30 10:56:21;;;;;;;4.90;2.80;;;15.70;99.90;;;;;;5052736;28;20214;-86
2022/05/30 10:58:55;;;;;;;3.43;2.10;;;15.50;99.90;;;;;;5045277;28;20216;-89
2022/05/30 11:01:33;;;;;;;5.57;2.00;;;15.20;99.90;;;;;;5042457;28;20204;-89
2022/05/30 11:04:13;;;;;;;5.73;2.13;;;15.10;99.90;;;;;;5033484;28;20214;-90
2022/05/30 11:06:44;;;;;;;8.10;2.20;;;15.20;99.90;;;;;;5037295;28;20220;-88
2022/05/30 11:09:19;;;;;;;6.50;2.10;;;15.60;99.90;;;;;;5049878;28;20295;-88
2022/05/30 11:11:52;;;;;;;6.13;2.03;;;15.90;99.90;;;;;;5050308;28;20209;-88
2022/05/30 11:14:27;;;;;;;8.40;2.40;;;15.50;99.90;;;;;;5049711;28;20204;-87
2022/05/30 11:17:00;;;;;;;8.07;2.67;;;15.80;99.90;;;;;;5043928;28;20211;-88
2022/05/30 11:19:35;;;;;;;6.40;2.40;;;16.10;99.90;;;;;;5044785;28;20589;-87
2022/05/30 11:22:07;;;;;;;9.20;2.60;;;16.10;99.90;;;;;;5049793;28;20217;-89
2022/05/30 11:24:37;;;;;;;4.80;1.93;;;16.30;99.90;;;;;;5051061;28;20289;-87
2022/05/30 11:27:28;;;;;;;5.13;2.13;;;16.50;99.90;;;;;;5045903;28;20248;-85
2022/05/30 11:30:28;;;;;;;6.53;2.93;;;16.50;99.90;;;;;;5050606;28;20234;-89
2022/05/30 11:33:13;;;;;;;3.87;2.10;;;16.40;99.90;;;;;;5043403;28;20210;-90
2022/05/30 11:35:46;;;;;;;5.00;2.80;;;16.90;99.90;;;;;;5058090;28;20198;-85
2022/05/30 11:38:35;;;;;;;7.67;2.20;;;17.00;99.90;;;;;;5056622;28;20205;-84
2022/05/30 11:41:17;;;;;;;8.60;2.40;;;17.20;99.90;;;;;;5055830;28;20223;-88
2022/05/30 11:44:09;;;;;;;3.73;2.17;;;17.00;99.90;;;;;;5033592;28;20548;-88
2022/05/30 11:46:46;;;;;;;8.47;3.03;;;17.10;99.90;;;;;;5033622;28;20222;-89
2022/05/30 11:49:25;;;;;;;5.53;2.30;;;17.20;99.90;;;;;;5033641;28;20213;-88
2022/05/30 11:52:00;;;;;;;6.60;2.50;;;17.40;99.90;;;;;;5034320;28;20212;-81
2022/05/30 11:54:46;;;;;;;6.37;2.47;;;17.40;99.90;;;;;;5029655;28;20219;-90
2022/05/30 11:57:26;;;;;;;4.47;2.33;;;17.40;99.90;;;;;;5028579;28;20230;-90
2022/05/30 12:00:07;;;;;;;4.47;1.97;;;16.80;99.90;;;;;;5032545;28;20217;-87
2022/05/30 12:02:52;;;;;;;6.93;2.43;;;17.00;99.90;;;;;;5035864;28;20219;-87
2022/05/30 12:05:41;;;;;;;4.00;2.43;;;17.00;99.90;;;;;;5044663;28;20185;-90
2022/05/30 12:08:28;;;;;;;5.43;2.33;;;17.30;99.90;;;;;;5047905;28;20208;-89
2022/05/30 12:11:31;;;;;;;8.17;2.70;;;17.70;99.90;;;;;;5047580;28;20229;-89
2022/05/30 12:14:14;;;;;;;3.07;2.33;;;18.00;99.90;;;;;;5042278;28;20217;-80
2022/05/30 12:16:47;;;;;;;5.20;2.53;;;18.20;99.90;;;;;;5049660;28;20194;-87
2022/05/30 12:25:49;;;;;;;5.37;2.90;;;18.00;99.90;;;;;;5050449;28;20241;-85
2022/05/30 12:28:54;;;;;;;2.97;2.57;;;18.10;99.90;;;;;;5046355;28;20261;-84
2022/05/30 12:31:39;;;;;;;5.13;2.63;;;17.90;99.90;;;;;;5050194;28;20211;-82
2022/05/30 12:34:06;;;;;;;6.50;3.30;;;17.70;99.90;;;;;;5049521;28;20223;-89
2022/05/30 12:36:46;;;;;;;5.57;2.60;;;17.50;99.90;;;;;;5047870;28;20214;-90
2022/05/30 12:39:37;;;;;;;4.33;2.23;;;17.50;99.90;;;;;;5036412;28;20214;-84
2022/05/30 12:42:08;;;;;;;5.47;2.60;;;17.90;99.90;;;;;;5037458;28;20230;-84
2022/05/30 12:44:57;;;;;;;8.23;2.80;;;18.10;99.90;;;;;;5048183;28;20242;-88
2022/05/30 12:47:31;;;;;;;6.77;2.37;;;18.40;99.90;;;;;;5050971;28;20215;-82
2022/05/30 12:50:24;;;;;;;5.43;2.47;;;18.30;99.90;;;;;;5049448;28;20226;-86
2022/05/30 12:52:57;;;;;;;5.60;2.50;;;18.20;99.90;;;;;;5044109;28;20209;-88
2022/05/30 12:55:37;;;;;;;6.10;2.77;;;18.40;99.90;;;;;;5042907;28;20305;-88
2022/05/30 12:58:05;;;;;;;4.87;2.50;;;17.90;99.90;;;;;;5042982;28;20267;-89
2022/05/30 13:00:52;;;;;;;3.63;2.10;;;17.70;99.90;;;;;;5042850;28;20211;-85
2022/05/30 13:03:39;;;;;;;4.57;2.20;;;17.20;99.90;;;;;;5042492;28;20212;-89
2022/05/30 13:06:11;;;;;;;4.50;2.50;;;17.20;99.90;;;;;;5041181;28;20222;-89
2022/05/30 13:09:13;;;;;;;5.57;2.70;;;17.30;99.90;;;;;;5039034;28;20286;-81
2022/05/30 13:12:17;;;;;;;6.20;2.40;;;17.70;99.90;;;;;;5034163;28;20579;-81
2022/05/30 13:15:04;;;;;;;8.27;2.33;;;17.40;99.90;;;;;;5034086;28;20211;-82
2022/05/30 13:17:40;;;;;;;5.40;2.17;;;17.40;99.90;;;;;;5034032;28;20221;-81
2022/05/30 13:20:12;;;;;;;6.17;2.87;;;17.60;99.90;;;;;;5035069;28;20217;-82
2022/05/30 13:22:45;;;;;;;5.77;2.60;;;18.10;99.90;;;;;;5032972;28;20220;-83
2022/05/30 13:25:16;;;;;;;3.20;2.90;;;17.90;99.90;;;;;;5033563;28;20237;-82
2022/05/30 13:27:46;;;;;;;5.30;2.33;;;17.90;99.90;;;;;;5033935;28;20210;-82
2022/05/30 13:30:17;;;;;;;4.03;2.33;;;18.00;99.90;;;;;;5034401;28;20316;-82
2022/05/30 13:32:44;;;;;;;4.73;2.57;;;18.20;99.90;;;;;;5034507;28;20690;-80
2022/05/30 13:35:14;;;;;;;3.53;2.80;;;18.40;99.90;;;;;;5034217;28;20222;-82
2022/05/30 13:37:45;;;;;;;6.33;2.60;;;18.80;99.90;;;;;;5034212;28;20238;-83
2022/05/30 13:40:15;;;;;;;4.80;2.43;;;19.50;99.90;;;;;;5035318;28;20220;-82